createdAt,value
2023-02-06T00:00:07.839Z,3.37
2023-02-06T00:03:20.290Z,3.40
2023-02-06T00:06:22.565Z,5.10
2023-02-06T00:09:25.572Z,4.83
2023-02-06T00:12:28.178Z,3.97
2023-02-06T00:15:30.338Z,4.43
2023-02-06T00:18:33.481Z,4.57
2023-02-06T00:21:35.501Z,3.67
2023-02-06T00:24:37.487Z,4.23
2023-02-06T00:27:39.532Z,4.00
2023-02-06T00:30:41.508Z,4.10
2023-02-06T00:33:44.001Z,3.07
2023-02-06T00:36:46.051Z,3.73
2023-02-06T00:39:48.060Z,3.57
2023-02-06T00:42:50.059Z,3.23
2023-02-06T00:45:57.039Z,3.27
2023-02-06T00:48:59.120Z,3.23
2023-02-06T00:52:03.482Z,4.00
2023-02-06T00:55:07.472Z,3.83
2023-02-06T00:58:09.548Z,3.97
2023-02-06T01:01:11.579Z,4.07
2023-02-06T01:04:13.625Z,4.57
2023-02-06T01:07:15.751Z,3.40
2023-02-06T01:10:17.818Z,3.97
2023-02-06T01:13:20.488Z,4.80
2023-02-06T01:16:24.998Z,3.33
2023-02-06T01:19:27.050Z,3.42
2023-02-06T01:22:29.073Z,3.37
2023-02-06T01:25:31.158Z,3.53
2023-02-06T01:28:35.900Z,3.60
2023-02-06T01:31:38.006Z,3.55
2023-02-06T01:34:40.454Z,3.80
2023-02-06T01:37:44.368Z,4.03
2023-02-06T01:40:46.442Z,3.07
2023-02-06T01:44:12.812Z,2.57
2023-02-06T01:47:14.881Z,3.37
2023-02-06T01:50:17.261Z,2.93
2023-02-06T01:53:22.035Z,3.53
2023-02-06T01:56:25.555Z,4.40
2023-02-06T01:59:28.182Z,3.40
2023-02-06T02:02:33.911Z,3.40
2023-02-06T02:05:36.543Z,3.73
2023-02-06T02:08:45.387Z,3.08
2023-02-06T02:11:47.425Z,3.13
2023-02-06T02:14:52.097Z,3.57
2023-02-06T02:18:05.283Z,3.65
2023-02-06T02:21:21.841Z,3.20
2023-02-06T02:24:48.096Z,3.27
2023-02-06T02:28:24.268Z,3.10
2023-02-06T02:31:45.252Z,3.00
2023-02-06T02:34:56.231Z,3.20
2023-02-06T02:38:19.638Z,2.40
2023-02-06T02:41:42.602Z,2.90
2023-02-06T02:45:13.814Z,3.50
2023-02-06T02:48:28.391Z,2.70
2023-02-06T02:51:31.185Z,3.50
2023-02-06T02:54:33.189Z,2.90
2023-02-06T02:57:36.789Z,2.40
2023-02-06T03:00:55.558Z,3.30
2023-02-06T03:04:00.454Z,2.83
2023-02-06T03:07:10.274Z,2.78
2023-02-06T03:10:34.017Z,3.10
2023-02-06T03:13:44.200Z,2.63
2023-02-06T03:17:04.223Z,2.97
2023-02-06T03:20:09.075Z,3.00
2023-02-06T03:26:22.906Z,2.83
2023-02-06T03:29:28.280Z,3.37
2023-02-06T03:32:34.537Z,3.83
2023-02-06T03:35:38.437Z,3.77
2023-02-06T03:38:40.726Z,4.23
2023-02-06T03:41:45.404Z,4.13
2023-02-06T03:44:59.662Z,4.47
2023-02-06T03:48:06.414Z,4.67
2023-02-06T03:51:31.094Z,4.77
2023-02-06T03:54:36.794Z,5.07
2023-02-06T03:57:39.751Z,5.00
2023-02-06T04:00:44.689Z,4.70
2023-02-06T04:06:48.684Z,3.37
2023-02-06T04:09:51.207Z,4.03
2023-02-06T04:12:53.522Z,3.63
2023-02-06T04:15:56.462Z,3.63
2023-02-06T04:18:58.470Z,4.03
2023-02-06T04:22:00.891Z,3.03
2023-02-06T04:25:03.039Z,3.53
2023-02-06T04:28:05.516Z,3.33
2023-02-06T04:31:08.600Z,2.80
2023-02-06T04:34:10.756Z,3.00
2023-02-06T04:37:12.779Z,3.00
2023-02-06T04:40:14.805Z,3.37
2023-02-06T04:43:16.828Z,2.97
2023-02-06T04:46:19.898Z,3.23
2023-02-06T04:49:22.018Z,3.37
2023-02-06T04:52:24.358Z,2.90
2023-02-06T04:55:26.417Z,2.97
2023-02-06T04:58:28.470Z,3.37
2023-02-06T05:01:30.963Z,3.40
2023-02-06T05:04:34.184Z,3.70
2023-02-06T05:10:41.797Z,3.50
2023-02-06T05:13:43.780Z,3.13
2023-02-06T05:16:46.477Z,2.40
2023-02-06T05:19:48.638Z,2.83
2023-02-06T05:22:50.717Z,3.57
2023-02-06T05:25:52.856Z,2.57
2023-02-06T05:28:54.954Z,3.43
2023-02-06T05:31:57.053Z,3.63
2023-02-06T05:34:59.325Z,2.50
2023-02-06T05:38:01.295Z,2.70
2023-02-06T05:41:03.644Z,2.47
2023-02-06T05:44:05.734Z,3.30
2023-02-06T05:47:07.730Z,2.67
2023-02-06T05:50:09.909Z,3.60
2023-02-06T05:53:12.018Z,3.00
2023-02-06T05:56:14.029Z,3.57
2023-02-06T05:59:16.134Z,2.93
2023-02-06T06:02:18.229Z,3.40
2023-02-06T06:05:21.432Z,3.63
2023-02-06T06:08:23.562Z,3.63
2023-02-06T06:11:25.613Z,3.47
2023-02-06T06:14:27.790Z,3.43
2023-02-06T06:17:29.816Z,3.30
2023-02-06T06:20:31.846Z,3.67
2023-02-06T06:23:33.943Z,3.97
2023-02-06T06:26:36.092Z,3.03
2023-02-06T06:29:38.362Z,4.03
2023-02-06T06:32:40.515Z,3.73
2023-02-06T06:35:42.940Z,3.37
2023-02-06T06:38:45.061Z,3.47
2023-02-06T06:41:47.111Z,3.60
2023-02-06T06:44:49.383Z,4.87
2023-02-06T06:47:51.529Z,3.57
2023-02-06T06:50:53.542Z,3.83
2023-02-06T06:53:56.970Z,4.17
2023-02-06T06:56:58.984Z,3.60
2023-02-06T07:00:02.003Z,3.90
2023-02-06T07:03:04.467Z,3.53
2023-02-06T07:06:06.745Z,4.43
2023-02-06T07:09:08.930Z,5.73
2023-02-06T07:12:10.955Z,3.73
2023-02-06T07:15:12.955Z,3.87
2023-02-06T07:18:15.998Z,5.27
2023-02-06T07:21:19.999Z,4.37
2023-02-06T07:24:22.025Z,4.70
2023-02-06T07:27:24.150Z,3.77
2023-02-06T07:30:27.096Z,4.07
2023-02-06T07:33:29.179Z,4.97
2023-02-06T07:36:31.484Z,3.70
2023-02-06T07:39:33.502Z,3.80
2023-02-06T07:42:37.526Z,3.67
2023-02-06T07:45:39.809Z,4.00
2023-02-06T07:48:42.636Z,4.77
2023-02-06T07:51:46.180Z,4.37
2023-02-06T07:54:49.159Z,4.70
2023-02-06T07:57:51.169Z,4.47
2023-02-06T08:00:54.875Z,5.80
2023-02-06T08:03:57.316Z,5.70
2023-02-06T08:06:59.402Z,6.23
2023-02-06T08:10:01.372Z,4.83
2023-02-06T08:13:03.492Z,5.27
2023-02-06T08:16:12.410Z,5.73
2023-02-06T08:19:14.618Z,6.23
2023-02-06T08:22:16.579Z,7.63
2023-02-06T08:25:18.739Z,6.05
2023-02-06T08:28:20.994Z,4.32
2023-02-06T08:31:26.075Z,8.43
2023-02-06T08:34:28.603Z,7.18
2023-02-06T08:37:31.968Z,9.38
2023-02-06T08:40:34.073Z,6.35
2023-02-06T08:43:36.115Z,7.82
2023-02-06T08:46:39.338Z,6.47
2023-02-06T08:49:41.570Z,7.95
2023-02-06T08:52:43.777Z,8.07
2023-02-06T08:55:45.920Z,7.53
2023-02-06T08:58:47.928Z,7.10
2023-02-06T09:01:50.035Z,6.78
2023-02-06T09:04:52.296Z,6.32
2023-02-06T09:07:54.313Z,7.55
2023-02-06T09:10:56.794Z,8.23
2023-02-06T09:14:00.662Z,5.32
2023-02-06T09:17:03.345Z,4.93
2023-02-06T09:20:05.997Z,3.47
2023-02-06T09:23:08.106Z,3.55
2023-02-06T09:26:11.856Z,4.72
2023-02-06T09:29:14.578Z,4.43
2023-02-06T09:32:16.878Z,5.68
2023-02-06T09:35:18.965Z,3.28
2023-02-06T09:38:22.367Z,5.18
2023-02-06T09:41:27.768Z,3.63
2023-02-06T09:44:30.277Z,5.07
2023-02-06T09:47:39.430Z,4.32
2023-02-06T09:51:03.945Z,8.93
2023-02-06T09:54:11.983Z,7.95
2023-02-06T09:57:42.104Z,6.63
2023-02-06T10:01:02.560Z,6.35
2023-02-06T10:04:13.021Z,2.55
2023-02-06T10:07:21.523Z,3.35
2023-02-06T10:10:38.994Z,7.07
2023-02-06T10:14:00.268Z,4.18
2023-02-06T10:17:26.026Z,11.73
2023-02-06T10:20:46.881Z,6.97
2023-02-06T10:24:01.003Z,4.70
2023-02-06T10:27:23.556Z,4.45
2023-02-06T10:30:52.648Z,4.95
2023-02-06T10:34:24.847Z,5.50
2023-02-06T10:37:58.141Z,4.95
2023-02-06T10:41:19.950Z,5.05
2023-02-06T10:44:31.867Z,4.25
2023-02-06T10:47:49.111Z,4.88
2023-02-06T10:51:03.944Z,5.57
2023-02-06T10:54:16.088Z,4.63
2023-02-06T10:57:21.973Z,5.07
2023-02-06T11:00:26.352Z,4.45
2023-02-06T11:03:32.038Z,5.10
2023-02-06T11:06:36.847Z,4.38
2023-02-06T11:09:38.835Z,4.57
2023-02-06T11:13:07.505Z,4.32
2023-02-06T11:16:16.528Z,4.15
2023-02-06T11:19:42.155Z,4.65
2023-02-06T11:22:52.337Z,6.25
2023-02-06T11:26:06.191Z,5.05
2023-02-06T11:29:27.748Z,4.45
2023-02-06T11:32:41.142Z,5.53
2023-02-06T11:35:56.071Z,7.18
2023-02-06T11:39:05.209Z,9.73
2023-02-06T11:42:20.066Z,6.97
2023-02-06T11:45:33.679Z,6.43
2023-02-06T11:48:45.188Z,6.97
2023-02-06T11:51:54.559Z,5.97
2023-02-06T11:55:01.842Z,5.90
2023-02-06T11:58:12.916Z,7.07
2023-02-06T12:01:21.011Z,6.00
2023-02-06T12:04:32.483Z,7.43
2023-02-06T12:07:55.815Z,6.63
2023-02-06T12:11:04.203Z,7.50
2023-02-06T12:14:31.366Z,7.20
2023-02-06T12:17:37.824Z,11.07
2023-02-06T12:20:52.750Z,8.98
2023-02-06T12:24:01.951Z,7.93
2023-02-06T12:27:18.538Z,8.55
2023-02-06T12:30:29.942Z,8.05
2023-02-06T12:33:48.444Z,7.50
2023-02-06T12:37:10.480Z,7.22
2023-02-06T12:40:31.194Z,8.02
2023-02-06T12:43:36.115Z,7.60
2023-02-06T12:46:39.395Z,9.18
2023-02-06T12:49:56.890Z,7.68
2023-02-06T12:53:10.604Z,7.18
2023-02-06T12:56:21.784Z,7.95
2023-02-06T12:59:56.996Z,6.70
2023-02-06T13:03:14.603Z,9.60
2023-02-06T13:06:25.637Z,15.80
2023-02-06T13:09:32.734Z,12.00
2023-02-06T13:12:40.645Z,6.43
2023-02-06T13:15:42.763Z,6.53
2023-02-06T13:18:45.671Z,7.40
2023-02-06T13:22:15.789Z,6.65
2023-02-06T13:25:29.707Z,6.05
2023-02-06T13:28:37.387Z,8.32
2023-02-06T13:31:39.535Z,8.70
2023-02-06T13:34:43.243Z,10.23
2023-02-06T13:37:48.248Z,6.53
2023-02-06T13:41:16.776Z,8.07
2023-02-06T13:44:25.385Z,8.25
2023-02-06T13:47:52.129Z,7.93
2023-02-06T13:51:07.149Z,7.30
2023-02-06T13:54:39.894Z,5.82
2023-02-06T13:58:09.970Z,6.53
2023-02-06T14:01:15.844Z,8.40
2023-02-06T14:04:38.168Z,7.07
2023-02-06T14:08:01.152Z,6.93
2023-02-06T14:11:34.539Z,8.30
2023-02-06T14:14:52.228Z,10.27
2023-02-06T14:18:19.552Z,6.40
2023-02-06T14:21:40.635Z,8.27
2023-02-06T14:24:42.631Z,4.95
2023-02-06T14:28:12.248Z,5.78
2023-02-06T14:31:33.414Z,4.68
2023-02-06T14:34:50.559Z,6.32
2023-02-06T14:38:18.401Z,2.72
2023-02-06T14:41:20.841Z,3.92
2023-02-06T14:44:30.686Z,2.50
2023-02-06T14:47:41.130Z,2.28
2023-02-06T14:50:49.402Z,4.18
2023-02-06T14:54:16.686Z,2.75
2023-02-06T14:57:26.335Z,2.13
2023-02-06T15:00:29.205Z,3.55
2023-02-06T15:03:31.457Z,2.55
2023-02-06T15:06:37.827Z,2.67
2023-02-06T15:09:44.269Z,2.75
2023-02-06T15:12:54.059Z,2.80
2023-02-06T15:15:57.259Z,1.85
2023-02-06T15:19:20.225Z,2.58
2023-02-06T15:22:29.159Z,1.85
2023-02-06T15:26:03.858Z,2.85
2023-02-06T15:29:19.152Z,1.92
2023-02-06T15:32:38.548Z,1.67
2023-02-06T15:35:48.546Z,2.05
2023-02-06T15:38:51.441Z,2.55
2023-02-06T15:41:54.196Z,2.15
2023-02-06T15:44:57.648Z,1.70
2023-02-06T15:48:18.176Z,2.20
2023-02-06T15:51:24.847Z,2.47
2023-02-06T15:54:27.918Z,1.80
2023-02-06T15:57:39.963Z,1.58
2023-02-06T16:00:42.210Z,3.85
2023-02-06T16:03:45.607Z,1.73
2023-02-06T16:07:17.605Z,1.45
2023-02-06T16:10:27.943Z,1.50
2023-02-06T16:13:32.711Z,0.90
2023-02-06T16:16:35.050Z,1.10
2023-02-06T16:19:52.227Z,2.00
2023-02-06T16:23:18.361Z,1.83
2023-02-06T16:26:25.585Z,1.73
2023-02-06T16:29:31.902Z,1.50
2023-02-06T16:32:35.571Z,2.08
2023-02-06T16:35:38.163Z,2.83
2023-02-06T16:38:42.003Z,1.70
2023-02-06T16:41:51.513Z,2.70
2023-02-06T16:45:10.408Z,2.03
2023-02-06T16:48:14.104Z,2.57
2023-02-06T16:51:18.660Z,1.93
2023-02-06T16:54:27.501Z,1.67
2023-02-06T16:57:39.482Z,1.93
2023-02-06T17:00:43.402Z,1.88
2023-02-06T17:03:45.442Z,2.85
2023-02-06T17:06:48.122Z,1.97
2023-02-06T17:09:51.887Z,2.30
2023-02-06T17:12:55.056Z,2.47
2023-02-06T17:15:57.369Z,1.70
2023-02-06T17:18:59.724Z,1.97
2023-02-06T17:22:01.769Z,1.80
2023-02-06T17:25:13.356Z,1.80
2023-02-06T17:28:22.507Z,2.17
2023-02-06T17:31:24.650Z,3.00
2023-02-06T17:34:27.577Z,1.97
2023-02-06T17:37:29.672Z,3.30
2023-02-06T17:40:34.108Z,4.37
2023-02-06T17:43:37.546Z,2.05
2023-02-06T17:46:39.987Z,3.33
2023-02-06T17:49:42.411Z,2.70
2023-02-06T17:52:44.535Z,2.50
2023-02-06T17:55:47.385Z,2.50
2023-02-06T17:58:49.834Z,2.83
2023-02-06T18:01:52.128Z,3.17
2023-02-06T18:04:54.471Z,2.60
2023-02-06T18:07:56.580Z,2.23
2023-02-06T18:10:58.918Z,3.53
2023-02-06T18:14:02.496Z,2.80
2023-02-06T18:17:06.824Z,3.13
2023-02-06T18:20:10.590Z,2.67
2023-02-06T18:23:12.795Z,2.60
2023-02-06T18:26:15.367Z,2.80
2023-02-06T18:29:17.594Z,2.80
2023-02-06T18:32:20.019Z,2.40
2023-02-06T18:35:22.137Z,2.50
2023-02-06T18:38:24.658Z,2.63
2023-02-06T18:41:45.190Z,4.00
2023-02-06T18:44:47.167Z,3.50
2023-02-06T18:47:51.734Z,3.37
2023-02-06T18:50:54.471Z,6.13
2023-02-06T18:54:00.578Z,4.03
2023-02-06T18:57:03.193Z,4.10
2023-02-06T19:00:07.583Z,5.50
2023-02-06T19:03:09.547Z,5.18
2023-02-06T19:06:17.488Z,5.50
2023-02-06T19:09:22.927Z,3.80
2023-02-06T19:12:28.322Z,4.83
2023-02-06T19:15:34.266Z,4.20
2023-02-06T19:18:39.631Z,4.60
2023-02-06T19:21:44.135Z,3.87
2023-02-06T19:24:46.259Z,4.97
2023-02-06T19:27:48.515Z,5.03
2023-02-06T19:30:51.800Z,4.97
2023-02-06T19:33:59.555Z,4.87
2023-02-06T19:37:02.338Z,5.20
2023-02-06T19:40:04.624Z,4.17
2023-02-06T19:43:06.682Z,4.57
2023-02-06T19:46:12.781Z,5.03
2023-02-06T19:49:15.801Z,4.40
2023-02-06T19:52:18.095Z,4.57
2023-02-06T19:55:20.221Z,4.83
2023-02-06T19:58:22.783Z,5.47
2023-02-06T20:01:26.028Z,4.40
2023-02-06T20:04:31.594Z,5.33
2023-02-06T20:07:35.453Z,5.50
2023-02-06T20:10:38.863Z,4.80
2023-02-06T20:13:41.745Z,5.07
2023-02-06T20:16:44.997Z,5.07
2023-02-06T20:19:47.304Z,5.43
2023-02-06T20:22:50.354Z,4.97
2023-02-06T20:25:53.064Z,4.00
2023-02-06T20:28:55.758Z,5.40
2023-02-06T20:31:58.722Z,5.27
2023-02-06T20:35:00.870Z,6.07
2023-02-06T20:38:03.020Z,4.97
2023-02-06T20:41:06.682Z,5.50
2023-02-06T20:44:10.919Z,6.03
2023-02-06T20:47:13.024Z,5.50
2023-02-06T20:50:16.829Z,5.03
2023-02-06T20:53:18.859Z,5.63
2023-02-06T20:56:21.858Z,5.43
2023-02-06T20:59:23.839Z,5.03
2023-02-06T21:02:25.902Z,6.40
2023-02-06T21:05:28.261Z,5.17
2023-02-06T21:08:30.415Z,4.87
2023-02-06T21:11:38.556Z,6.43
2023-02-06T21:14:41.821Z,6.27
2023-02-06T21:17:43.986Z,6.37
2023-02-06T21:20:46.609Z,7.03
2023-02-06T21:23:49.098Z,5.77
2023-02-06T21:26:52.164Z,6.00
2023-02-06T21:29:55.471Z,5.80
2023-02-06T21:32:57.503Z,7.00
2023-02-06T21:36:02.359Z,6.53
2023-02-06T21:39:05.057Z,6.10
2023-02-06T21:42:08.643Z,17.40
2023-02-06T21:45:10.658Z,10.10
2023-02-06T21:48:12.768Z,6.63
2023-02-06T21:51:17.185Z,7.93
2023-02-06T21:57:22.879Z,5.47
2023-02-06T22:00:25.043Z,5.17
2023-02-06T22:03:27.120Z,6.07
2023-02-06T22:06:29.789Z,5.63
2023-02-06T22:09:31.854Z,4.97
2023-02-06T22:12:34.401Z,5.30
2023-02-06T22:15:36.924Z,5.03
2023-02-06T22:18:39.960Z,5.87
2023-02-06T22:21:42.717Z,6.80
2023-02-06T22:24:44.987Z,6.20
2023-02-06T22:27:47.343Z,5.27
2023-02-06T22:30:49.745Z,7.13
2023-02-06T22:33:53.190Z,5.37
2023-02-06T22:36:55.231Z,5.57
2023-02-06T22:39:57.382Z,6.73
2023-02-06T22:42:59.373Z,5.80
2023-02-06T22:46:01.767Z,6.60
2023-02-06T22:49:06.422Z,8.00
2023-02-06T22:52:31.357Z,5.95
2023-02-06T22:55:59.306Z,5.63
2023-02-06T22:59:13.395Z,5.40
2023-02-06T23:02:17.317Z,6.77
2023-02-06T23:05:23.586Z,6.07
2023-02-06T23:08:25.583Z,5.40
2023-02-06T23:11:28.749Z,4.93
2023-02-06T23:14:32.859Z,5.23
2023-02-06T23:17:34.961Z,4.85
2023-02-06T23:20:38.257Z,4.30
2023-02-06T23:23:41.440Z,3.90
2023-02-06T23:26:46.148Z,3.70
2023-02-06T23:29:48.254Z,4.55
2023-02-06T23:32:51.113Z,4.47
2023-02-06T23:35:53.256Z,3.03
2023-02-06T23:38:56.345Z,3.17
2023-02-06T23:41:58.371Z,2.73
2023-02-06T23:45:00.710Z,2.80
2023-02-06T23:48:02.843Z,2.20
2023-02-06T23:51:04.811Z,2.30
2023-02-06T23:54:08.681Z,2.30
2023-02-06T23:57:10.833Z,2.43
